Time;durP1;ratioP1;P1;durP2;ratioP2;P2;SDS_P1;SDS_P2;PMS_P1;PMS_P2;Temp;Humidity;BMP_temperature;BMP_pressure;BME280_temperature;BME280_humidity;BME280_pressure;Samples;Min_cycle;Max_cycle;Signal;HPM_P1;HPM_P2
2022/09/04 00:01:21;;;;;;;5.10;2.42;;;;;;;;;;5049974;28;20239;-14
2022/09/04 00:03:53;;;;;;;4.75;2.30;;;;;;;;;;5048822;28;21153;-15
2022/09/04 00:06:21;;;;;;;8.77;2.50;;;;;;;;;;5061678;28;20674;-14
2022/09/04 00:08:51;;;;;;;3.17;2.55;;;;;;;;;;5044994;28;20237;-14
2022/09/04 00:11:24;;;;;;;5.85;2.28;;;;;;;;;;5069462;28;20284;-14
2022/09/04 00:13:53;;;;;;;3.08;2.50;;;;;;;;;;5049874;28;21092;-15
2022/09/04 00:16:21;;;;;;;4.57;2.50;;;;;;;;;;5066528;28;20578;-14
2022/09/04 00:18:52;;;;;;;5.10;2.53;;;;;;;;;;5069462;28;20230;-14
2022/09/04 00:21:20;;;;;;;2.85;2.28;;;;;;;;;;5053673;28;20229;-14
2022/09/04 00:23:48;;;;;;;5.22;2.58;;;;;;;;;;5069434;28;20271;-14
2022/09/04 00:26:18;;;;;;;6.20;2.65;;;;;;;;;;5052732;28;21017;-14
2022/09/04 00:28:48;;;;;;;4.20;2.45;;;;;;;;;;5069662;28;20225;-14
2022/09/04 00:31:17;;;;;;;3.05;2.30;;;;;;;;;;5059790;28;20222;-14
2022/09/04 00:33:47;;;;;;;3.88;2.30;;;;;;;;;;5070005;28;20329;-14
2022/09/04 00:36:16;;;;;;;4.68;2.40;;;;;;;;;;5047373;28;20702;-14
2022/09/04 00:38:44;;;;;;;4.43;2.55;;;;;;;;;;5053638;28;20237;-14
2022/09/04 00:41:14;;;;;;;3.70;2.47;;;;;;;;;;5055269;28;20239;-14
2022/09/04 00:43:56;;;;;;;3.53;2.53;;;;;;;;;;5060632;28;20234;-14
2022/09/04 00:46:36;;;;;;;6.75;2.97;;;;;;;;;;5044212;28;20246;-14
2022/09/04 00:49:19;;;;;;;5.18;2.33;;;;;;;;;;5032759;28;20256;-14
2022/09/04 00:51:49;;;;;;;3.30;2.60;;;;;;;;;;5058783;28;20241;-14
2022/09/04 00:54:34;;;;;;;3.75;2.60;;;;;;;;;;5069510;28;20229;-14
2022/09/04 00:57:34;;;;;;;6.65;3.03;;;;;;;;;;5055757;28;20606;-14
2022/09/04 01:00:06;;;;;;;5.85;2.72;;;;;;;;;;4981030;28;20236;-14
2022/09/04 01:02:38;;;;;;;2.95;2.58;;;;;;;;;;4954580;28;20248;-14
2022/09/04 01:05:08;;;;;;;3.60;2.70;;;;;;;;;;5002805;28;20241;-14
2022/09/04 01:07:49;;;;;;;7.25;3.50;;;;;;;;;;5042787;28;20317;-14
2022/09/04 01:10:19;;;;;;;4.82;2.65;;;;;;;;;;5051969;28;20283;-14
2022/09/04 01:12:48;;;;;;;4.38;2.90;;;;;;;;;;5049388;28;20242;-14
2022/09/04 01:15:16;;;;;;;4.50;2.70;;;;;;;;;;5050858;28;20234;-14
2022/09/04 01:17:46;;;;;;;5.57;2.70;;;;;;;;;;5056618;28;20237;-14
2022/09/04 01:20:14;;;;;;;5.43;3.13;;;;;;;;;;5069418;28;20232;-14
2022/09/04 01:22:51;;;;;;;5.57;2.50;;;;;;;;;;5065929;28;20232;-14
2022/09/04 01:25:26;;;;;;;3.40;2.70;;;;;;;;;;5067827;28;20241;-15
2022/09/04 01:27:56;;;;;;;4.70;3.00;;;;;;;;;;5061673;28;20229;-14
2022/09/04 01:30:23;;;;;;;5.07;2.83;;;;;;;;;;5065470;28;20240;-14
2022/09/04 01:32:55;;;;;;;4.22;3.03;;;;;;;;;;5062399;28;20245;-14
2022/09/04 01:35:24;;;;;;;3.25;2.95;;;;;;;;;;5053960;28;20239;-13
2022/09/04 01:37:55;;;;;;;5.97;2.88;;;;;;;;;;5053248;28;21056;-14
2022/09/04 01:40:27;;;;;;;3.35;2.65;;;;;;;;;;5054469;28;20276;-14
2022/09/04 01:43:04;;;;;;;5.70;3.45;;;;;;;;;;5055473;28;20235;-15
2022/09/04 01:45:33;;;;;;;4.28;2.97;;;;;;;;;;5041679;28;20226;-14
2022/09/04 01:48:02;;;;;;;5.85;2.97;;;;;;;;;;5049174;28;20242;-15
2022/09/04 01:50:31;;;;;;;3.50;3.17;;;;;;;;;;5054564;28;20230;-14
2022/09/04 01:52:58;;;;;;;3.97;3.13;;;;;;;;;;5037906;28;20242;-14
2022/09/04 01:55:26;;;;;;;4.57;3.15;;;;;;;;;;5060818;28;20244;-14
2022/09/04 01:57:56;;;;;;;4.05;3.05;;;;;;;;;;5046225;28;20233;-14
2022/09/04 02:00:25;;;;;;;3.45;2.88;;;;;;;;;;5051839;28;20226;-14
2022/09/04 02:02:54;;;;;;;6.63;3.20;;;;;;;;;;5037365;28;20280;-14
2022/09/04 02:05:25;;;;;;;4.85;2.90;;;;;;;;;;5063142;28;20234;-14
2022/09/04 02:07:54;;;;;;;4.97;2.95;;;;;;;;;;5046338;28;20230;-14
2022/09/04 02:10:25;;;;;;;7.45;2.97;;;;;;;;;;5047752;28;20230;-14
2022/09/04 02:12:54;;;;;;;4.93;3.03;;;;;;;;;;5047175;28;20243;-14
2022/09/04 02:15:25;;;;;;;5.70;2.88;;;;;;;;;;5065741;28;21025;-14
2022/09/04 02:17:56;;;;;;;3.28;2.97;;;;;;;;;;5055294;28;20229;-14
2022/09/04 02:20:23;;;;;;;3.65;3.13;;;;;;;;;;5053866;28;20241;-14
2022/09/04 02:22:54;;;;;;;4.03;3.20;;;;;;;;;;5063183;22;20237;-14
2022/09/04 02:25:24;;;;;;;3.10;2.70;;;;;;;;;;5055370;28;20246;-13
2022/09/04 02:27:53;;;;;;;4.60;2.75;;;;;;;;;;5068658;28;20244;-14
2022/09/04 02:30:20;;;;;;;6.90;2.78;;;;;;;;;;5064482;28;20607;-13
2022/09/04 02:32:49;;;;;;;5.60;2.72;;;;;;;;;;5073178;28;20247;-13
2022/09/04 02:35:19;;;;;;;3.00;2.70;;;;;;;;;;5072734;28;20236;-13
2022/09/04 02:37:50;;;;;;;5.60;3.05;;;;;;;;;;5064053;28;20233;-13
2022/09/04 02:40:19;;;;;;;4.68;2.83;;;;;;;;;;5073176;28;20221;-13
2022/09/04 02:42:48;;;;;;;5.05;2.90;;;;;;;;;;5063184;28;20227;-14
2022/09/04 02:45:18;;;;;;;3.22;2.90;;;;;;;;;;5067565;28;21040;-13
2022/09/04 02:47:47;;;;;;;6.60;3.03;;;;;;;;;;5060767;28;20226;-13
2022/09/04 02:50:20;;;;;;;3.13;2.83;;;;;;;;;;5072278;28;20221;-14
2022/09/04 02:52:55;;;;;;;3.88;3.08;;;;;;;;;;5072309;28;20238;-13
2022/09/04 02:55:30;;;;;;;3.38;3.08;;;;;;;;;;5070432;28;20229;-14
2022/09/04 02:58:00;;;;;;;4.65;3.13;;;;;;;;;;5063786;28;20245;-14
2022/09/04 03:00:32;;;;;;;3.28;2.90;;;;;;;;;;5065741;28;20229;-13
2022/09/04 03:03:00;;;;;;;6.43;3.05;;;;;;;;;;5065031;28;20360;-13
2022/09/04 03:05:29;;;;;;;4.07;2.78;;;;;;;;;;5052218;28;20240;-13
2022/09/04 03:07:58;;;;;;;3.97;3.10;;;;;;;;;;5066901;28;20233;-14
2022/09/04 03:10:27;;;;;;;7.72;3.38;;;;;;;;;;5071600;28;20225;-14
2022/09/04 03:12:55;;;;;;;4.32;3.25;;;;;;;;;;5069981;28;20726;-13
2022/09/04 03:15:26;;;;;;;5.07;2.90;;;;;;;;;;5071516;28;20221;-14
2022/09/04 03:17:57;;;;;;;4.40;3.28;;;;;;;;;;5067442;28;20241;-14
2022/09/04 03:20:25;;;;;;;5.38;3.20;;;;;;;;;;5062990;28;20698;-14
2022/09/04 03:22:57;;;;;;;5.25;3.40;;;;;;;;;;5055871;28;20246;-14
2022/09/04 03:25:37;;;;;;;3.70;3.00;;;;;;;;;;5051307;28;20773;-13
2022/09/04 03:28:04;;;;;;;6.13;3.15;;;;;;;;;;5051317;28;20278;-14
2022/09/04 03:30:32;;;;;;;4.32;2.90;;;;;;;;;;5050432;28;20234;-13
2022/09/04 03:33:01;;;;;;;6.38;2.83;;;;;;;;;;5051709;28;20230;-13
2022/09/04 03:35:31;;;;;;;3.63;3.28;;;;;;;;;;5050557;28;20231;-14
2022/09/04 03:38:09;;;;;;;4.15;3.33;;;;;;;;;;5051134;28;20233;-14
2022/09/04 03:40:37;;;;;;;6.10;3.30;;;;;;;;;;5050713;28;20852;-13
2022/09/04 03:43:14;;;;;;;4.72;3.40;;;;;;;;;;5051065;28;20226;-14
2022/09/04 03:45:43;;;;;;;4.63;3.33;;;;;;;;;;5050715;28;20222;-13
2022/09/04 03:48:13;;;;;;;3.63;3.30;;;;;;;;;;5050675;28;20230;-13
2022/09/04 03:50:44;;;;;;;5.53;3.40;;;;;;;;;;5050428;28;20234;-13
2022/09/04 03:53:15;;;;;;;3.70;3.22;;;;;;;;;;5051580;28;21016;-13
2022/09/04 03:55:57;;;;;;;3.58;3.17;;;;;;;;;;5046723;28;20230;-14
2022/09/04 03:58:26;;;;;;;4.47;3.00;;;;;;;;;;5048874;28;20241;-13
2022/09/04 04:00:56;;;;;;;2.95;2.75;;;;;;;;;;5050449;28;21024;-14
2022/09/04 04:03:36;;;;;;;3.40;3.10;;;;;;;;;;5050637;28;21041;-14
2022/09/04 04:06:11;;;;;;;6.22;2.78;;;;;;;;;;5048723;28;20236;-14
2022/09/04 04:08:49;;;;;;;3.83;2.90;;;;;;;;;;5050980;28;20233;-14
2022/09/04 04:11:28;;;;;;;3.45;2.75;;;;;;;;;;5050091;28;20230;-13
2022/09/04 04:14:17;;;;;;;4.15;2.85;;;;;;;;;;5051975;28;20245;-13
2022/09/04 04:16:49;;;;;;;3.05;2.67;;;;;;;;;;5045402;28;20232;-13
2022/09/04 04:19:41;;;;;;;5.60;2.95;;;;;;;;;;5050556;28;20232;-13
2022/09/04 04:22:12;;;;;;;3.28;2.63;;;;;;;;;;5050293;28;20356;-14
2022/09/04 04:24:48;;;;;;;6.03;2.70;;;;;;;;;;5050078;28;20226;-13
2022/09/04 04:27:24;;;;;;;4.50;2.83;;;;;;;;;;5050587;28;21084;-13
2022/09/04 04:29:55;;;;;;;5.55;3.30;;;;;;;;;;5050095;28;20325;-14
2022/09/04 04:32:25;;;;;;;5.20;2.83;;;;;;;;;;5050450;28;20222;-14
2022/09/04 04:35:10;;;;;;;3.63;2.60;;;;;;;;;;5052988;28;20238;-14
2022/09/04 04:37:42;;;;;;;4.90;3.08;;;;;;;;;;5050321;28;20244;-13
2022/09/04 04:40:13;;;;;;;3.10;2.80;;;;;;;;;;5050242;28;20583;-14
2022/09/04 04:42:42;;;;;;;3.38;2.75;;;;;;;;;;5050715;28;20226;-13
2022/09/04 04:48:07;;;;;;;3.17;2.90;;;;;;;;;;5050377;28;20244;-14
2022/09/04 04:50:36;;;;;;;4.43;2.80;;;;;;;;;;5044334;28;20229;-14
2022/09/04 04:53:05;;;;;;;3.15;2.85;;;;;;;;;;5050476;28;20235;-14
2022/09/04 04:55:38;;;;;;;4.05;3.03;;;;;;;;;;5049423;28;20238;-14
2022/09/04 04:58:15;;;;;;;5.55;3.05;;;;;;;;;;5053355;28;20236;-13
2022/09/04 05:00:43;;;;;;;3.72;3.33;;;;;;;;;;5049817;28;20226;-13
2022/09/04 05:03:14;;;;;;;3.13;2.83;;;;;;;;;;5050431;28;20238;-13
2022/09/04 05:05:45;;;;;;;3.80;3.00;;;;;;;;;;5049933;28;20233;-14
2022/09/04 05:08:16;;;;;;;3.40;3.10;;;;;;;;;;5050001;28;20230;-14
2022/09/04 05:10:45;;;;;;;6.25;3.40;;;;;;;;;;5049629;28;20237;-14
2022/09/04 05:13:15;;;;;;;9.27;3.17;;;;;;;;;;5050056;28;20226;-13
2022/09/04 05:15:43;;;;;;;4.57;2.72;;;;;;;;;;5049262;28;20713;-13
2022/09/04 05:18:31;;;;;;;3.22;2.95;;;;;;;;;;5049190;28;20229;-13
2022/09/04 05:20:59;;;;;;;5.15;3.30;;;;;;;;;;5049822;28;20248;-14
2022/09/04 05:23:31;;;;;;;4.80;3.10;;;;;;;;;;5049443;28;20257;-13
2022/09/04 05:26:02;;;;;;;6.50;3.60;;;;;;;;;;5049381;28;20230;-14
2022/09/04 05:28:31;;;;;;;6.80;3.75;;;;;;;;;;5050371;28;20234;-13
2022/09/04 05:31:03;;;;;;;4.40;2.75;;;;;;;;;;5048792;28;20226;-14
2022/09/04 05:33:32;;;;;;;5.65;3.10;;;;;;;;;;5049833;28;21019;-13
2022/09/04 05:36:01;;;;;;;3.60;3.20;;;;;;;;;;5049302;28;20237;-13
2022/09/04 05:38:30;;;;;;;5.18;3.90;;;;;;;;;;5049746;28;20230;-13
2022/09/04 05:41:03;;;;;;;3.92;3.40;;;;;;;;;;5049272;28;20226;-13
2022/09/04 05:43:34;;;;;;;4.90;3.35;;;;;;;;;;5049737;28;20321;-14
2022/09/04 05:46:04;;;;;;;5.60;3.55;;;;;;;;;;5049198;28;20234;-14
2022/09/04 05:48:32;;;;;;;5.47;3.03;;;;;;;;;;5052990;28;20770;-14
2022/09/04 05:51:05;;;;;;;5.18;3.20;;;;;;;;;;5049016;28;20233;-13
2022/09/04 05:53:37;;;;;;;6.32;3.33;;;;;;;;;;5049628;28;20617;-13
2022/09/04 05:56:10;;;;;;;4.45;3.83;;;;;;;;;;5049457;28;20251;-14
2022/09/04 05:58:42;;;;;;;6.18;3.05;;;;;;;;;;5051174;28;20241;-14
2022/09/04 06:01:12;;;;;;;4.25;3.47;;;;;;;;;;5052429;28;20229;-13
2022/09/04 06:03:45;;;;;;;5.15;3.35;;;;;;;;;;5055702;28;20236;-14
2022/09/04 06:06:18;;;;;;;5.03;3.65;;;;;;;;;;5052588;28;20230;-14
2022/09/04 06:08:54;;;;;;;7.15;4.03;;;;;;;;;;5052558;28;20221;-13
2022/09/04 06:11:28;;;;;;;5.32;3.90;;;;;;;;;;5042509;28;20240;-13
2022/09/04 06:13:58;;;;;;;4.35;3.53;;;;;;;;;;5052280;28;20226;-14
2022/09/04 06:16:29;;;;;;;7.15;3.80;;;;;;;;;;5052389;28;20253;-13
2022/09/04 06:19:09;;;;;;;8.15;3.75;;;;;;;;;;5052442;28;21000;-13
2022/09/04 06:21:49;;;;;;;5.97;3.70;;;;;;;;;;5052138;28;20898;-13
2022/09/04 06:24:20;;;;;;;7.22;3.47;;;;;;;;;;5052088;28;20323;-14
2022/09/04 06:27:00;;;;;;;4.35;3.28;;;;;;;;;;5052312;28;20694;-13
2022/09/04 06:29:42;;;;;;;4.05;3.40;;;;;;;;;;5052017;28;20230;-14
2022/09/04 06:32:14;;;;;;;9.65;3.70;;;;;;;;;;5048865;28;20236;-13
2022/09/04 06:34:51;;;;;;;8.18;3.65;;;;;;;;;;5054476;28;20256;-13
2022/09/04 06:37:20;;;;;;;3.75;3.40;;;;;;;;;;5049601;28;20230;-13
2022/09/04 06:39:53;;;;;;;7.93;3.97;;;;;;;;;;5051639;28;20238;-14
2022/09/04 06:42:25;;;;;;;11.00;4.10;;;;;;;;;;5051538;28;20280;-13
2022/09/04 06:44:57;;;;;;;6.38;4.05;;;;;;;;;;5051611;28;20234;-14
2022/09/04 06:47:27;;;;;;;5.68;4.30;;;;;;;;;;5050417;28;20238;-13
2022/09/04 06:49:58;;;;;;;5.93;4.97;;;;;;;;;;5051592;28;20233;-13
2022/09/04 06:52:27;;;;;;;7.95;5.10;;;;;;;;;;5048870;28;20234;-13
2022/09/04 06:54:56;;;;;;;7.53;5.28;;;;;;;;;;5053156;28;20245;-13
2022/09/04 06:57:42;;;;;;;7.78;4.90;;;;;;;;;;5050562;28;20222;-13
2022/09/04 07:00:10;;;;;;;10.85;5.03;;;;;;;;;;5041653;28;20229;-14
2022/09/04 07:02:58;;;;;;;6.18;4.40;;;;;;;;;;5051840;28;20935;-13
2022/09/04 07:05:27;;;;;;;8.27;3.97;;;;;;;;;;5050633;28;21657;-13
2022/09/04 07:07:58;;;;;;;5.30;4.07;;;;;;;;;;5050751;28;20701;-13
2022/09/04 07:10:26;;;;;;;7.30;4.68;;;;;;;;;;5050682;28;20791;-14
2022/09/04 07:12:58;;;;;;;8.52;4.32;;;;;;;;;;5051205;28;20250;-13
2022/09/04 07:15:31;;;;;;;5.68;4.43;;;;;;;;;;5051581;28;21029;-13
2022/09/04 07:18:00;;;;;;;6.43;4.97;;;;;;;;;;5052197;28;20308;-14
2022/09/04 07:20:30;;;;;;;7.03;4.47;;;;;;;;;;5052987;28;20702;-13
2022/09/04 07:23:02;;;;;;;9.35;4.65;;;;;;;;;;5044548;28;20610;-14
2022/09/04 07:25:32;;;;;;;9.23;5.00;;;;;;;;;;5051222;28;20234;-13
2022/09/04 07:28:04;;;;;;;9.45;4.63;;;;;;;;;;5050774;28;20234;-14
2022/09/04 07:30:34;;;;;;;9.23;5.03;;;;;;;;;;5045053;28;20270;-14
2022/09/04 07:33:02;;;;;;;11.75;5.32;;;;;;;;;;5052865;28;20238;-14
2022/09/04 07:35:30;;;;;;;9.43;4.63;;;;;;;;;;5049824;28;20246;-14
2022/09/04 07:37:59;;;;;;;18.92;5.30;;;;;;;;;;5051832;28;20226;-13
2022/09/04 07:40:29;;;;;;;8.43;4.57;;;;;;;;;;5050676;28;20231;-14
2022/09/04 07:42:57;;;;;;;10.15;4.72;;;;;;;;;;5051010;28;20258;-14
2022/09/04 07:45:28;;;;;;;6.55;4.47;;;;;;;;;;5051027;28;20353;-14
2022/09/04 07:47:59;;;;;;;6.65;4.07;;;;;;;;;;5051637;28;20313;-14
2022/09/04 07:50:29;;;;;;;11.27;4.40;;;;;;;;;;5049607;28;20801;-13
2022/09/04 07:53:02;;;;;;;16.67;4.60;;;;;;;;;;5051953;28;20241;-14
2022/09/04 07:55:37;;;;;;;9.23;4.90;;;;;;;;;;5051577;28;20598;-13
2022/09/04 07:58:20;;;;;;;11.75;3.53;;;;;;;;;;5049785;28;20228;-13
2022/09/04 08:00:51;;;;;;;13.27;4.47;;;;;;;;;;5050549;28;20234;-14
2022/09/04 08:03:23;;;;;;;14.65;4.70;;;;;;;;;;5050656;28;20230;-14
2022/09/04 08:05:52;;;;;;;10.43;4.90;;;;;;;;;;5055720;28;20238;-13
2022/09/04 08:08:24;;;;;;;10.90;3.67;;;;;;;;;;5049575;28;20717;-13
2022/09/04 08:10:59;;;;;;;8.30;4.40;;;;;;;;;;5050192;28;21034;-13
2022/09/04 08:13:32;;;;;;;11.25;3.85;;;;;;;;;;5047185;28;20242;-13
2022/09/04 08:16:03;;;;;;;10.85;4.00;;;;;;;;;;5039569;28;20234;-15
2022/09/04 08:18:44;;;;;;;11.70;3.97;;;;;;;;;;5042661;28;20227;-15
2022/09/04 08:21:14;;;;;;;11.90;3.60;;;;;;;;;;5052369;28;20238;-15
2022/09/04 08:24:00;;;;;;;5.07;3.35;;;;;;;;;;5054058;28;20226;-14
2022/09/04 08:26:32;;;;;;;6.75;3.00;;;;;;;;;;5022980;28;20308;-14
2022/09/04 08:29:19;;;;;;;12.82;3.85;;;;;;;;;;5053037;28;20235;-14
2022/09/04 08:31:49;;;;;;;8.48;3.53;;;;;;;;;;5049708;28;20232;-14
2022/09/04 08:34:41;;;;;;;8.60;3.30;;;;;;;;;;5050794;28;20234;-15
2022/09/04 08:37:11;;;;;;;4.13;3.40;;;;;;;;;;5046540;28;20252;-15
2022/09/04 08:39:45;;;;;;;5.00;3.22;;;;;;;;;;5053660;28;20234;-14
2022/09/04 08:42:31;;;;;;;6.05;3.78;;;;;;;;;;5054043;28;20234;-15
2022/09/04 08:45:21;;;;;;;5.40;3.70;;;;;;;;;;5050009;28;20990;-14
2022/09/04 08:48:17;;;;;;;7.05;3.55;;;;;;;;;;5051770;28;20240;-15
2022/09/04 08:51:06;;;;;;;5.13;4.15;;;;;;;;;;5046036;28;20230;-15
2022/09/04 08:53:52;;;;;;;8.98;3.75;;;;;;;;;;5050366;28;20227;-15
2022/09/04 08:56:21;;;;;;;3.70;3.33;;;;;;;;;;5049652;28;20297;-14
2022/09/04 08:59:00;;;;;;;5.18;3.35;;;;;;;;;;5049251;28;20232;-13
2022/09/04 09:01:43;;;;;;;5.45;3.05;;;;;;;;;;5045212;28;20280;-14
2022/09/04 09:04:25;;;;;;;10.10;3.30;;;;;;;;;;5006791;28;21066;-15
2022/09/04 09:07:07;;;;;;;6.03;3.22;;;;;;;;;;5012519;28;20233;-14
2022/09/04 09:09:41;;;;;;;17.17;4.20;;;;;;;;;;5057529;28;20227;-14
2022/09/04 09:12:32;;;;;;;15.18;3.80;;;;;;;;;;5048589;28;20241;-15
2022/09/04 09:15:14;;;;;;;7.82;3.92;;;;;;;;;;5055299;28;20323;-14
2022/09/04 09:17:44;;;;;;;8.65;3.25;;;;;;;;;;5054099;28;20241;-15
2022/09/04 09:20:17;;;;;;;16.23;4.18;;;;;;;;;;5053925;28;20234;-14
2022/09/04 09:23:07;;;;;;;21.17;3.17;;;;;;;;;;5054763;28;20323;-14
2022/09/04 09:25:35;;;;;;;9.95;3.35;;;;;;;;;;5051824;28;20241;-14
2022/09/04 09:28:27;;;;;;;11.63;3.50;;;;;;;;;;5058885;28;20237;-14
2022/09/04 09:31:11;;;;;;;15.52;3.72;;;;;;;;;;5049153;28;20238;-14
2022/09/04 09:33:43;;;;;;;8.60;3.45;;;;;;;;;;5035014;28;20257;-15
2022/09/04 09:36:19;;;;;;;4.22;3.05;;;;;;;;;;5049029;28;20229;-14
2022/09/04 09:38:59;;;;;;;10.13;2.92;;;;;;;;;;5037395;28;20224;-15
2022/09/04 09:41:45;;;;;;;5.55;3.10;;;;;;;;;;5043714;28;20827;-14
2022/09/04 09:44:26;;;;;;;5.60;3.20;;;;;;;;;;5049299;28;20232;-14
2022/09/04 09:47:04;;;;;;;6.00;2.58;;;;;;;;;;5048922;28;20329;-14
2022/09/04 09:49:40;;;;;;;5.05;2.88;;;;;;;;;;5049130;28;20233;-14
2022/09/04 09:52:08;;;;;;;5.53;3.00;;;;;;;;;;5048862;28;20226;-14
2022/09/04 09:54:45;;;;;;;4.30;3.08;;;;;;;;;;5049425;28;20242;-14
2022/09/04 09:57:31;;;;;;;5.43;3.13;;;;;;;;;;5048982;28;20244;-14
2022/09/04 10:00:18;;;;;;;3.75;3.03;;;;;;;;;;5049432;28;20994;-15
2022/09/04 10:03:16;;;;;;;8.50;2.92;;;;;;;;;;5038136;28;20234;-14
2022/09/04 10:06:14;;;;;;;5.28;3.50;;;;;;;;;;5047981;28;20234;-15
2022/09/04 10:08:43;;;;;;;2.63;2.40;;;;;;;;;;5044918;28;20226;-14
2022/09/04 10:11:26;;;;;;;4.95;2.95;;;;;;;;;;5048727;28;20232;-14
2022/09/04 10:14:01;;;;;;;4.63;2.88;;;;;;;;;;5046045;28;20218;-15
2022/09/04 10:16:33;;;;;;;5.82;3.22;;;;;;;;;;5048512;28;21048;-14
2022/09/04 10:19:15;;;;;;;8.32;2.92;;;;;;;;;;5048802;28;20257;-14
2022/09/04 10:21:57;;;;;;;4.55;2.80;;;;;;;;;;5049834;28;20244;-14
2022/09/04 10:24:34;;;;;;;3.22;2.83;;;;;;;;;;5062910;28;20226;-15
2022/09/04 10:27:28;;;;;;;4.38;2.75;;;;;;;;;;5048644;28;20226;-14
2022/09/04 10:30:07;;;;;;;3.67;3.10;;;;;;;;;;5012886;28;20230;-14
2022/09/04 10:32:53;;;;;;;4.82;3.25;;;;;;;;;;5048920;28;20396;-14
2022/09/04 10:35:21;;;;;;;2.78;2.55;;;;;;;;;;5041500;28;20236;-15
2022/09/04 10:37:58;;;;;;;6.55;2.92;;;;;;;;;;5047729;28;20249;-14
2022/09/04 10:40:37;;;;;;;2.70;2.50;;;;;;;;;;5048787;28;20234;-14
2022/09/04 10:43:25;;;;;;;3.20;2.88;;;;;;;;;;5048737;28;20274;-14
2022/09/04 10:45:57;;;;;;;3.97;2.92;;;;;;;;;;5049855;28;20223;-14
2022/09/04 10:48:45;;;;;;;6.63;3.10;;;;;;;;;;5051662;28;20234;-14
2022/09/04 10:51:36;;;;;;;3.53;2.90;;;;;;;;;;5052019;28;20278;-14
2022/09/04 10:54:17;;;;;;;3.83;2.85;;;;;;;;;;5032098;28;20230;-14
2022/09/04 10:56:47;;;;;;;3.67;2.60;;;;;;;;;;5051623;28;20963;-14
2022/09/04 10:59:19;;;;;;;3.22;2.72;;;;;;;;;;5051578;28;20705;-14
2022/09/04 11:01:58;;;;;;;4.15;3.00;;;;;;;;;;5051686;28;20230;-14
2022/09/04 11:04:39;;;;;;;5.18;2.90;;;;;;;;;;5051846;28;20237;-14
2022/09/04 11:07:10;;;;;;;4.57;3.20;;;;;;;;;;5051636;28;20238;-14
2022/09/04 11:09:41;;;;;;;3.03;2.67;;;;;;;;;;5051798;28;20237;-15
2022/09/04 11:12:16;;;;;;;3.05;2.75;;;;;;;;;;5051779;28;20290;-15
2022/09/04 11:15:00;;;;;;;5.45;2.80;;;;;;;;;;5051722;28;20704;-14
2022/09/04 11:17:40;;;;;;;3.92;2.97;;;;;;;;;;5051419;28;21014;-14
2022/09/04 11:20:15;;;;;;;3.50;2.60;;;;;;;;;;5051424;28;20229;-14
2022/09/04 11:23:08;;;;;;;5.78;3.00;;;;;;;;;;5050303;28;20361;-14
2022/09/04 11:25:51;;;;;;;3.20;2.55;;;;;;;;;;5051467;28;20386;-14
2022/09/04 11:28:34;;;;;;;3.75;2.53;;;;;;;;;;5051465;28;20244;-15
2022/09/04 11:31:06;;;;;;;4.20;2.88;;;;;;;;;;5057012;28;20230;-15
2022/09/04 11:33:43;;;;;;;3.42;2.65;;;;;;;;;;5051247;28;20228;-14
2022/09/04 11:36:28;;;;;;;3.85;2.78;;;;;;;;;;5051487;28;20242;-15
2022/09/04 11:39:00;;;;;;;3.25;2.45;;;;;;;;;;5048210;28;20248;-14
2022/09/04 11:41:49;;;;;;;3.20;2.60;;;;;;;;;;5051502;28;20238;-14
2022/09/04 11:44:26;;;;;;;4.20;2.88;;;;;;;;;;5046707;28;20230;-14
2022/09/04 11:47:11;;;;;;;3.17;2.72;;;;;;;;;;5051447;28;20232;-14
2022/09/04 11:49:53;;;;;;;3.25;2.53;;;;;;;;;;5051175;28;20234;-15
2022/09/04 11:52:27;;;;;;;3.10;2.75;;;;;;;;;;5049959;28;20701;-14
2022/09/04 11:55:15;;;;;;;2.72;2.40;;;;;;;;;;5055175;28;20300;-14
2022/09/04 11:57:47;;;;;;;3.67;2.70;;;;;;;;;;5040065;28;20285;-14
2022/09/04 12:00:15;;;;;;;2.65;2.42;;;;;;;;;;5051150;28;20776;-14
2022/09/04 12:02:48;;;;;;;2.90;2.60;;;;;;;;;;5050802;28;20340;-14
2022/09/04 12:05:23;;;;;;;2.80;2.50;;;;;;;;;;5050600;28;20226;-14
2022/09/04 12:07:58;;;;;;;3.40;2.50;;;;;;;;;;5050777;28;20225;-14
2022/09/04 12:10:28;;;;;;;3.35;2.75;;;;;;;;;;5050914;28;20240;-14
2022/09/04 12:12:59;;;;;;;4.40;2.80;;;;;;;;;;5051203;28;20893;-14
2022/09/04 12:16:17;;;;;;;3.03;2.72;;;;;;;;;;5050428;28;20669;-15
2022/09/04 12:18:59;;;;;;;3.17;2.47;;;;;;;;;;5050559;28;20277;-14
2022/09/04 12:21:36;;;;;;;2.60;2.35;;;;;;;;;;5042200;28;20280;-15
2022/09/04 12:24:22;;;;;;;3.05;2.60;;;;;;;;;;5064762;28;20233;-14
2022/09/04 12:27:07;;;;;;;2.45;2.25;;;;;;;;;;5050202;28;20312;-14
2022/09/04 12:29:55;;;;;;;3.28;2.83;;;;;;;;;;5051440;28;20222;-15
2022/09/04 12:32:26;;;;;;;3.60;2.75;;;;;;;;;;5051800;28;20280;-14
2022/09/04 12:35:08;;;;;;;2.90;2.35;;;;;;;;;;5050168;28;20237;-14
2022/09/04 12:37:55;;;;;;;3.75;2.63;;;;;;;;;;5015053;28;20305;-14
2022/09/04 12:40:30;;;;;;;3.10;2.60;;;;;;;;;;5043045;28;21059;-14
2022/09/04 12:43:01;;;;;;;3.83;2.80;;;;;;;;;;5050682;28;20228;-14
2022/09/04 12:45:30;;;;;;;4.18;2.20;;;;;;;;;;5050184;28;20234;-15
2022/09/04 12:47:59;;;;;;;2.75;2.28;;;;;;;;;;5050038;28;20245;-14
2022/09/04 12:50:32;;;;;;;2.80;2.38;;;;;;;;;;5055547;28;20226;-14
2022/09/04 12:53:14;;;;;;;3.70;2.65;;;;;;;;;;5050360;28;20230;-15
2022/09/04 12:55:45;;;;;;;3.03;2.70;;;;;;;;;;5044392;28;20309;-15
2022/09/04 12:58:16;;;;;;;2.95;2.65;;;;;;;;;;5049900;28;20226;-14
2022/09/04 13:00:46;;;;;;;4.95;2.67;;;;;;;;;;5049332;28;20230;-15
2022/09/04 13:03:18;;;;;;;2.50;2.28;;;;;;;;;;5049746;28;20296;-15
2022/09/04 13:05:52;;;;;;;3.63;2.72;;;;;;;;;;5050193;28;20230;-15
2022/09/04 13:08:25;;;;;;;3.70;2.45;;;;;;;;;;5041585;28;20725;-15
2022/09/04 13:10:59;;;;;;;2.67;2.40;;;;;;;;;;5049697;28;20265;-15
2022/09/04 13:13:30;;;;;;;2.63;2.42;;;;;;;;;;5050208;28;20233;-14
2022/09/04 13:15:59;;;;;;;3.95;3.10;;;;;;;;;;5060648;28;20237;-14
2022/09/04 13:18:32;;;;;;;3.80;2.38;;;;;;;;;;5049818;28;20243;-14
2022/09/04 13:21:00;;;;;;;3.00;2.50;;;;;;;;;;5049571;28;20706;-15
2022/09/04 13:23:34;;;;;;;5.30;2.75;;;;;;;;;;5048898;28;20241;-15
2022/09/04 13:26:08;;;;;;;3.40;2.70;;;;;;;;;;5049819;28;20234;-15
2022/09/04 13:28:38;;;;;;;3.78;2.58;;;;;;;;;;5049915;28;20234;-15
2022/09/04 13:31:25;;;;;;;2.85;2.50;;;;;;;;;;5050135;28;20237;-14
2022/09/04 13:33:54;;;;;;;3.20;2.70;;;;;;;;;;5049133;28;20280;-14
2022/09/04 13:36:25;;;;;;;4.68;2.47;;;;;;;;;;5049227;28;20230;-15
2022/09/04 13:39:09;;;;;;;6.05;2.80;;;;;;;;;;5049384;28;20361;-14
2022/09/04 13:41:41;;;;;;;3.00;2.70;;;;;;;;;;5051762;28;20240;-14
2022/09/04 13:44:22;;;;;;;4.82;2.70;;;;;;;;;;5059424;28;20230;-15
2022/09/04 13:46:50;;;;;;;2.42;2.22;;;;;;;;;;5049694;28;20226;-14
2022/09/04 13:49:19;;;;;;;3.95;2.63;;;;;;;;;;5049560;28;20234;-14
2022/09/04 13:51:47;;;;;;;2.60;2.40;;;;;;;;;;5050012;28;20230;-14
2022/09/04 13:54:16;;;;;;;3.55;2.67;;;;;;;;;;5049858;28;20229;-15
2022/09/04 13:56:48;;;;;;;2.65;2.28;;;;;;;;;;5049620;28;20233;-15
2022/09/04 13:59:16;;;;;;;2.90;2.60;;;;;;;;;;5049445;28;20226;-14
2022/09/04 14:01:45;;;;;;;2.88;2.08;;;;;;;;;;5049171;28;20233;-15
2022/09/04 14:04:13;;;;;;;4.32;2.05;;;;;;;;;;5049013;28;20232;-15
2022/09/04 14:06:41;;;;;;;2.53;2.33;;;;;;;;;;5049555;28;20226;-14
2022/09/04 14:09:08;;;;;;;3.65;2.50;;;;;;;;;;5049483;28;20740;-14
2022/09/04 14:11:51;;;;;;;7.75;2.53;;;;;;;;;;5049302;28;20631;-14
2022/09/04 14:14:50;;;;;;;2.58;2.33;;;;;;;;;;5049226;28;20226;-14
2022/09/04 14:17:25;;;;;;;3.78;2.50;;;;;;;;;;4967353;28;20225;-15
2022/09/04 14:19:54;;;;;;;3.25;2.25;;;;;;;;;;5037349;28;20320;-14
2022/09/04 14:22:26;;;;;;;7.53;3.05;;;;;;;;;;5051962;28;21138;-15
2022/09/04 14:24:56;;;;;;;3.08;2.47;;;;;;;;;;5052376;28;20226;-15
2022/09/04 14:27:26;;;;;;;3.05;2.30;;;;;;;;;;5051918;28;20223;-14
2022/09/04 14:29:58;;;;;;;2.85;2.42;;;;;;;;;;5056619;28;20247;-15
2022/09/04 14:32:31;;;;;;;2.40;2.20;;;;;;;;;;5053251;28;20230;-15
2022/09/04 14:35:01;;;;;;;3.35;2.33;;;;;;;;;;5052226;28;20226;-14
2022/09/04 14:37:45;;;;;;;4.63;2.75;;;;;;;;;;5052528;28;20317;-15
2022/09/04 14:40:12;;;;;;;2.53;2.33;;;;;;;;;;5050222;28;20236;-14
2022/09/04 14:42:45;;;;;;;2.75;2.30;;;;;;;;;;5052309;28;20241;-15
2022/09/04 14:45:15;;;;;;;3.20;2.35;;;;;;;;;;5052082;28;20669;-15
2022/09/04 14:47:43;;;;;;;3.03;2.25;;;;;;;;;;5052307;28;20236;-14
2022/09/04 14:50:12;;;;;;;3.63;2.55;;;;;;;;;;5051641;28;21121;-15
2022/09/04 14:52:39;;;;;;;2.58;2.22;;;;;;;;;;5052102;28;20237;-14
2022/09/04 14:55:07;;;;;;;5.07;2.63;;;;;;;;;;5051798;28;20226;-14
2022/09/04 14:57:37;;;;;;;4.30;2.50;;;;;;;;;;5052199;28;20233;-14
2022/09/04 15:00:10;;;;;;;3.35;2.38;;;;;;;;;;5051547;28;20238;-14
2022/09/04 15:02:39;;;;;;;3.83;2.30;;;;;;;;;;5051952;28;20321;-15
2022/09/04 15:05:09;;;;;;;2.40;2.20;;;;;;;;;;5051972;28;20230;-14
2022/09/04 15:07:50;;;;;;;2.60;2.35;;;;;;;;;;5045962;28;20230;-15
2022/09/04 15:10:18;;;;;;;3.05;2.20;;;;;;;;;;5051324;28;20234;-14
2022/09/04 15:12:49;;;;;;;2.45;2.20;;;;;;;;;;5052026;28;20697;-14
2022/09/04 15:15:19;;;;;;;3.55;2.58;;;;;;;;;;5051534;28;20802;-14
2022/09/04 15:17:50;;;;;;;2.67;2.40;;;;;;;;;;5051604;28;20234;-14
2022/09/04 15:20:21;;;;;;;2.75;2.20;;;;;;;;;;5051711;28;20234;-15
2022/09/04 15:22:50;;;;;;;5.38;2.28;;;;;;;;;;5059559;28;20736;-14
2022/09/04 15:25:29;;;;;;;3.63;2.33;;;;;;;;;;5051749;28;20234;-15
2022/09/04 15:28:19;;;;;;;2.47;2.25;;;;;;;;;;5048836;28;20722;-14